TAF Text Data
IDs:
Format:
Raw Decoded Include METAR

Data at: 0210 UTC 29 May 2022

KSLN 290153Z 14013KT 10SM CLR 27/20 A2950 RMK AO2 SLP974 T02670200

KSLN 282331Z 2900/2924 17016G24KT P6SM SCT200
  FM290200 16016G24KT P6SM SCT150 BKN200 WS020/20055KT
  FM291500 19020G30KT P6SM SCT250


KATW 290145Z 14008KT 10SM BKN080 17/11 A2978

KATW 282320Z 2900/2924 14009KT P6SM BKN090
  FM290600 18008G13KT P6SM SCT150 WS017/21035KT
  FM291400 17011G19KT P6SM SCT250
  FM291900 16014G26KT P6SM BKN250